createdAt,value
2023-04-16T00:00:10.307Z,7.45
2023-04-16T00:02:42.975Z,7.38
2023-04-16T00:04:55.596Z,7.33
2023-04-16T00:07:08.389Z,7.27
2023-04-16T00:09:20.994Z,7.19
2023-04-16T00:11:33.517Z,7.15
2023-04-16T00:13:46.065Z,7.15
2023-04-16T00:15:59.140Z,7.15
2023-04-16T00:18:11.685Z,7.16
2023-04-16T00:20:24.241Z,7.17
2023-04-16T00:22:36.971Z,7.17
2023-04-16T00:24:49.542Z,7.16
2023-04-16T00:27:02.071Z,7.16
2023-04-16T00:29:14.665Z,7.13
2023-04-16T00:31:31.878Z,7.08
2023-04-16T00:33:44.442Z,7.05
2023-04-16T00:35:57.169Z,7.03
2023-04-16T00:38:09.755Z,7.00
2023-04-16T00:40:22.281Z,6.94
2023-04-16T00:42:36.981Z,6.81
2023-04-16T00:44:49.583Z,6.69
2023-04-16T00:47:03.039Z,6.66
2023-04-16T00:49:15.603Z,6.61
2023-04-16T00:51:28.450Z,6.59
2023-04-16T00:53:41.656Z,6.56
2023-04-16T00:55:56.103Z,6.57
2023-04-16T00:58:08.673Z,6.58
2023-04-16T01:00:21.640Z,6.59
2023-04-16T01:02:34.702Z,6.54
2023-04-16T01:04:47.523Z,6.52
2023-04-16T01:07:00.498Z,6.53
2023-04-16T01:09:13.114Z,6.54
2023-04-16T01:11:25.819Z,6.56
2023-04-16T01:13:41.051Z,6.57
2023-04-16T01:15:53.577Z,6.57
2023-04-16T01:18:16.897Z,6.53
2023-04-16T01:20:29.773Z,6.43
2023-04-16T01:22:42.741Z,6.37
2023-04-16T01:24:55.376Z,6.35
2023-04-16T01:27:07.931Z,6.34
2023-04-16T01:29:20.648Z,6.31
2023-04-16T01:31:33.341Z,6.25
2023-04-16T01:33:46.124Z,6.21
2023-04-16T01:35:58.679Z,6.22
2023-04-16T01:38:11.255Z,6.25
2023-04-16T01:40:23.810Z,6.26
2023-04-16T01:42:37.549Z,6.28
2023-04-16T01:44:50.163Z,6.27
2023-04-16T01:47:02.923Z,6.24
2023-04-16T01:49:15.847Z,6.21
2023-04-16T01:51:28.431Z,6.20
2023-04-16T01:53:40.936Z,6.15
2023-04-16T01:55:53.575Z,6.11
2023-04-16T01:58:07.907Z,6.06
2023-04-16T02:00:20.538Z,6.07
2023-04-16T02:02:33.192Z,6.08
2023-04-16T02:04:46.330Z,6.04
2023-04-16T02:06:58.889Z,6.01
2023-04-16T02:09:11.709Z,5.98
2023-04-16T02:11:24.357Z,5.95
2023-04-16T02:13:36.926Z,5.97
2023-04-16T02:15:50.567Z,5.98
2023-04-16T02:18:03.275Z,6.01
2023-04-16T02:20:16.196Z,6.04
2023-04-16T02:22:28.743Z,6.06
2023-04-16T02:24:41.339Z,6.07
2023-04-16T02:26:54.696Z,6.07
2023-04-16T02:29:07.397Z,6.05
2023-04-16T02:31:19.991Z,6.04
2023-04-16T02:33:32.587Z,6.00
2023-04-16T02:35:45.185Z,5.95
2023-04-16T02:37:58.617Z,5.90
2023-04-16T02:40:11.617Z,5.89
2023-04-16T02:42:24.142Z,5.89
2023-04-16T02:44:36.634Z,5.90
2023-04-16T02:46:49.216Z,5.87
2023-04-16T02:49:01.714Z,5.83
2023-04-16T02:51:14.277Z,5.83
2023-04-16T02:53:26.826Z,5.83
2023-04-16T02:55:39.367Z,5.83
2023-04-16T02:57:52.886Z,5.82
2023-04-16T03:00:06.051Z,5.83
2023-04-16T03:02:18.600Z,5.82
2023-04-16T03:04:33.299Z,5.78
2023-04-16T03:06:46.231Z,5.75
2023-04-16T03:08:58.889Z,5.74
2023-04-16T03:11:11.676Z,5.74
2023-04-16T03:13:24.194Z,5.73
2023-04-16T03:15:36.833Z,5.76
2023-04-16T03:17:49.619Z,5.80
2023-04-16T03:20:02.248Z,5.87
2023-04-16T03:22:14.800Z,5.93
2023-04-16T03:24:28.109Z,5.99
2023-04-16T03:26:40.682Z,6.01
2023-04-16T03:28:53.252Z,6.04
2023-04-16T03:31:06.083Z,6.07
2023-04-16T03:33:19.465Z,6.10
2023-04-16T03:35:32.072Z,6.16
2023-04-16T03:37:44.626Z,6.20
2023-04-16T03:39:57.186Z,6.21
2023-04-16T03:42:09.751Z,6.24
2023-04-16T03:44:22.404Z,6.27
2023-04-16T03:46:35.036Z,6.27
2023-04-16T03:48:47.646Z,6.28
2023-04-16T03:51:00.597Z,6.29
2023-04-16T03:53:13.272Z,6.33
2023-04-16T03:55:25.812Z,6.38
2023-04-16T03:57:38.401Z,6.39
2023-04-16T03:59:51.072Z,6.39
2023-04-16T04:02:03.753Z,6.39
2023-04-16T04:04:16.680Z,6.44
2023-04-16T04:06:29.268Z,6.47
2023-04-16T04:08:42.840Z,6.51
2023-04-16T04:10:55.394Z,6.53
2023-04-16T04:13:08.055Z,6.54
2023-04-16T04:15:20.656Z,6.55
2023-04-16T04:17:33.240Z,6.57
2023-04-16T04:19:59.980Z,6.61
2023-04-16T04:22:13.503Z,6.62
2023-04-16T04:24:27.025Z,6.65
2023-04-16T04:26:39.585Z,6.65
2023-04-16T04:28:52.354Z,6.66
2023-04-16T04:31:05.326Z,6.69
2023-04-16T04:33:17.823Z,6.72
2023-04-16T04:35:30.402Z,6.78
2023-04-16T04:37:42.958Z,6.85
2023-04-16T04:39:55.759Z,6.89
2023-04-16T04:42:08.583Z,6.92
2023-04-16T04:44:21.142Z,6.98
2023-04-16T04:46:33.723Z,7.03
2023-04-16T04:48:46.224Z,7.05
2023-04-16T04:50:58.886Z,7.06
2023-04-16T04:53:11.512Z,7.08
2023-04-16T04:55:24.205Z,7.09
2023-04-16T04:57:36.750Z,7.09
2023-04-16T04:59:49.328Z,7.09
2023-04-16T05:02:03.370Z,7.10
2023-04-16T05:04:16.234Z,7.09
2023-04-16T05:06:29.705Z,7.04
2023-04-16T05:08:42.299Z,7.01
2023-04-16T05:10:54.836Z,6.99
2023-04-16T05:13:07.528Z,7.01
2023-04-16T05:15:20.208Z,7.03
2023-04-16T05:17:32.766Z,7.07
2023-04-16T05:19:45.370Z,7.13
2023-04-16T05:21:57.918Z,7.17
2023-04-16T05:24:10.639Z,7.24
2023-04-16T05:26:23.503Z,7.31
2023-04-16T05:28:36.108Z,7.34
2023-04-16T05:30:48.725Z,7.39
2023-04-16T05:33:01.295Z,7.48
2023-04-16T05:35:16.725Z,7.54
2023-04-16T05:37:30.030Z,7.60
2023-04-16T05:39:42.595Z,7.68
2023-04-16T05:41:55.110Z,7.77
2023-04-16T05:44:07.702Z,7.83
2023-04-16T05:46:20.532Z,7.82
2023-04-16T05:48:33.161Z,7.83
2023-04-16T05:50:45.725Z,7.88
2023-04-16T05:52:58.213Z,7.95
2023-04-16T05:55:10.858Z,8.02
2023-04-16T05:57:23.368Z,8.10
2023-04-16T05:59:35.950Z,8.12
2023-04-16T06:01:48.589Z,8.11
2023-04-16T06:04:01.386Z,8.12
2023-04-16T06:06:14.073Z,8.18
2023-04-16T06:08:26.614Z,8.27
2023-04-16T06:10:39.252Z,8.43
2023-04-16T06:12:51.752Z,8.54
2023-04-16T06:15:05.442Z,8.65
2023-04-16T06:17:19.286Z,8.66
2023-04-16T06:19:31.781Z,8.67
2023-04-16T06:21:44.367Z,8.68
2023-04-16T06:23:56.934Z,8.70
2023-04-16T06:26:11.355Z,8.67
2023-04-16T06:28:23.897Z,8.69
2023-04-16T06:30:36.518Z,8.74
2023-04-16T06:32:49.325Z,8.76
2023-04-16T06:35:01.921Z,8.78
2023-04-16T06:37:14.488Z,8.78
2023-04-16T06:39:27.502Z,8.75
2023-04-16T06:41:40.274Z,8.71
2023-04-16T06:43:52.792Z,8.68
2023-04-16T06:46:05.372Z,8.66
2023-04-16T06:48:17.886Z,8.66
2023-04-16T06:50:30.512Z,8.71
2023-04-16T06:52:43.107Z,8.81
2023-04-16T06:54:56.358Z,8.87
2023-04-16T06:57:08.894Z,8.91
2023-04-16T06:59:21.416Z,8.95
2023-04-16T07:01:34.254Z,9.00
2023-04-16T07:03:47.303Z,9.06
2023-04-16T07:06:00.219Z,9.11
2023-04-16T07:08:12.788Z,9.16
2023-04-16T07:10:25.563Z,9.24
2023-04-16T07:12:38.888Z,9.30
2023-04-16T07:14:51.561Z,9.32
2023-04-16T07:17:04.129Z,9.26
2023-04-16T07:19:16.717Z,9.26
2023-04-16T07:21:29.415Z,9.40
2023-04-16T07:23:42.023Z,9.61
2023-04-16T07:25:57.125Z,9.87
2023-04-16T07:28:09.742Z,10.15
2023-04-16T07:30:22.261Z,10.35
2023-04-16T07:32:35.497Z,10.50
2023-04-16T07:34:48.039Z,10.64
2023-04-16T07:37:00.779Z,10.80
2023-04-16T07:39:13.319Z,10.93
2023-04-16T07:41:26.173Z,11.06
2023-04-16T07:43:38.705Z,11.08
2023-04-16T07:45:51.571Z,11.12
2023-04-16T07:48:05.230Z,11.15
2023-04-16T07:50:19.423Z,11.24
2023-04-16T07:52:32.272Z,11.38
2023-04-16T07:54:44.821Z,11.52
2023-04-16T07:56:57.443Z,11.70
2023-04-16T07:59:21.786Z,11.95
2023-04-16T08:01:35.915Z,12.35
2023-04-16T08:03:48.578Z,12.66
2023-04-16T08:06:01.353Z,12.75
2023-04-16T08:08:13.908Z,12.76
2023-04-16T08:10:27.454Z,12.66
2023-04-16T08:12:40.687Z,12.56
2023-04-16T08:14:53.216Z,12.50
2023-04-16T08:17:05.970Z,12.46
2023-04-16T08:19:18.724Z,12.46
2023-04-16T08:21:31.590Z,12.45
2023-04-16T08:23:44.112Z,12.42
2023-04-16T08:25:56.767Z,12.49
2023-04-16T08:28:09.582Z,12.63
2023-04-16T08:30:22.997Z,12.74
2023-04-16T08:32:35.707Z,12.94
2023-04-16T08:34:48.338Z,13.16
2023-04-16T08:37:01.100Z,13.45
2023-04-16T08:39:13.698Z,13.48
2023-04-16T08:41:29.993Z,13.37
2023-04-16T08:43:45.348Z,13.43
2023-04-16T08:45:59.139Z,13.57
2023-04-16T08:48:12.030Z,13.88
2023-04-16T08:50:26.601Z,14.30
2023-04-16T08:52:45.932Z,14.70
2023-04-16T08:55:05.344Z,14.92
2023-04-16T08:57:19.783Z,15.21
2023-04-16T08:59:33.069Z,15.35
2023-04-16T09:01:46.778Z,15.52
2023-04-16T09:04:02.842Z,15.75
2023-04-16T09:06:16.644Z,15.87
2023-04-16T09:08:29.676Z,15.89
2023-04-16T09:10:43.226Z,15.87
2023-04-16T09:12:57.316Z,15.97
2023-04-16T09:15:11.460Z,16.05
2023-04-16T09:17:24.097Z,16.07
2023-04-16T09:19:36.764Z,16.08
2023-04-16T09:21:49.826Z,16.29
2023-04-16T09:24:03.446Z,16.49
2023-04-16T09:26:16.229Z,16.65
2023-04-16T09:28:46.429Z,16.69
2023-04-16T09:31:13.748Z,16.72
2023-04-16T09:33:26.334Z,16.71
2023-04-16T09:35:49.648Z,16.73
2023-04-16T09:38:02.225Z,16.85
2023-04-16T09:40:24.762Z,17.06
2023-04-16T09:42:37.471Z,17.24
2023-04-16T09:44:50.599Z,17.41
2023-04-16T09:47:07.959Z,17.49
2023-04-16T09:49:20.468Z,17.61
2023-04-16T09:51:37.394Z,17.76
2023-04-16T09:53:53.103Z,17.91
2023-04-16T09:56:06.689Z,17.97
2023-04-16T09:58:20.085Z,18.14
2023-04-16T10:00:32.702Z,18.38
2023-04-16T10:02:45.560Z,18.59
2023-04-16T10:05:01.287Z,18.69
2023-04-16T10:07:14.170Z,18.73
2023-04-16T10:09:26.675Z,18.98
2023-04-16T10:11:39.484Z,19.25
2023-04-16T10:13:52.153Z,19.48
2023-04-16T10:16:05.192Z,19.80
2023-04-16T10:18:18.220Z,20.06
2023-04-16T10:20:31.134Z,20.43
2023-04-16T10:22:43.939Z,20.85
2023-04-16T10:24:57.336Z,21.02
2023-04-16T10:27:09.893Z,21.30
2023-04-16T10:29:23.529Z,21.52
2023-04-16T10:31:37.694Z,21.31
2023-04-16T10:33:50.436Z,21.06
2023-04-16T10:36:17.313Z,21.25
2023-04-16T10:38:29.904Z,21.55
2023-04-16T10:40:44.907Z,21.54
2023-04-16T10:42:58.586Z,21.33
2023-04-16T10:45:11.288Z,21.16
2023-04-16T10:47:24.930Z,21.00
2023-04-16T10:49:37.511Z,20.92
2023-04-16T10:51:54.970Z,20.99
2023-04-16T10:54:12.530Z,21.29
2023-04-16T10:56:27.015Z,21.75
2023-04-16T10:58:39.678Z,22.14
2023-04-16T11:00:52.318Z,22.19
2023-04-16T11:03:04.992Z,21.83
2023-04-16T11:05:22.766Z,21.51
2023-04-16T11:07:35.848Z,21.34
2023-04-16T11:09:59.325Z,21.09
2023-04-16T11:12:34.163Z,20.66
2023-04-16T11:15:00.486Z,20.09
2023-04-16T11:17:13.258Z,19.87
2023-04-16T11:19:25.870Z,19.80
2023-04-16T11:21:38.469Z,19.72
2023-04-16T11:23:53.328Z,19.61
2023-04-16T11:26:06.044Z,19.57
2023-04-16T11:28:18.697Z,19.49
2023-04-16T11:30:35.843Z,19.47
2023-04-16T11:32:48.454Z,19.47
2023-04-16T11:35:15.132Z,19.65
2023-04-16T11:37:35.372Z,20.26
2023-04-16T11:39:52.621Z,20.90
2023-04-16T11:42:05.423Z,21.40
2023-04-16T11:44:23.397Z,21.77
2023-04-16T11:46:40.610Z,21.93
2023-04-16T11:48:55.390Z,21.82
2023-04-16T11:51:08.497Z,21.81
2023-04-16T11:53:21.222Z,21.77
2023-04-16T11:55:44.534Z,21.35
2023-04-16T11:57:57.117Z,21.10
2023-04-16T12:00:15.966Z,21.21
2023-04-16T12:02:45.563Z,21.20
2023-04-16T12:04:58.495Z,21.51
2023-04-16T12:07:14.668Z,21.74
2023-04-16T12:09:27.509Z,21.51
2023-04-16T12:11:41.453Z,21.39
2023-04-16T12:14:14.296Z,21.69
2023-04-16T12:16:27.241Z,21.18
2023-04-16T12:18:59.163Z,20.85
2023-04-16T12:21:11.932Z,20.42
2023-04-16T12:23:25.534Z,20.42
2023-04-16T12:25:38.268Z,20.53
2023-04-16T12:27:53.720Z,20.91
2023-04-16T12:30:08.024Z,20.50
2023-04-16T12:32:22.997Z,20.15
2023-04-16T12:34:50.364Z,20.00
2023-04-16T12:37:06.577Z,19.75
2023-04-16T12:39:19.144Z,19.64
2023-04-16T12:41:31.751Z,19.44
2023-04-16T12:43:44.296Z,19.17
2023-04-16T12:45:57.147Z,18.94
2023-04-16T12:48:10.171Z,18.69
2023-04-16T12:50:23.094Z,18.51
2023-04-16T12:52:35.828Z,18.38
2023-04-16T12:54:48.374Z,18.29
2023-04-16T12:57:00.869Z,18.20
2023-04-16T12:59:13.403Z,18.08
2023-04-16T13:01:25.948Z,17.92
2023-04-16T13:03:38.664Z,17.81
2023-04-16T13:05:51.769Z,17.72
2023-04-16T13:08:04.451Z,17.70
2023-04-16T13:10:17.341Z,17.63
2023-04-16T13:12:29.950Z,17.61
2023-04-16T13:14:43.998Z,17.69
2023-04-16T13:16:57.580Z,17.67
2023-04-16T13:19:10.493Z,17.65
2023-04-16T13:21:23.843Z,17.66
2023-04-16T13:23:36.483Z,17.54
2023-04-16T13:25:50.585Z,17.51
2023-04-16T13:28:03.314Z,17.52
2023-04-16T13:30:16.268Z,17.66
2023-04-16T13:32:28.940Z,17.68
2023-04-16T13:34:41.583Z,17.64
2023-04-16T13:36:54.087Z,17.67
2023-04-16T13:39:11.311Z,17.73
2023-04-16T13:41:24.297Z,17.67
2023-04-16T13:43:37.095Z,17.64
2023-04-16T13:45:49.694Z,17.60
2023-04-16T13:48:02.504Z,17.56
2023-04-16T13:50:16.045Z,17.57
2023-04-16T13:52:28.577Z,17.57
2023-04-16T13:54:41.495Z,17.57
2023-04-16T13:56:54.142Z,17.61
2023-04-16T13:59:06.794Z,17.74
2023-04-16T14:01:19.667Z,17.87
2023-04-16T14:03:35.835Z,17.84
2023-04-16T14:05:48.447Z,17.79
2023-04-16T14:08:00.972Z,17.82
2023-04-16T14:10:13.608Z,17.77
2023-04-16T14:12:27.314Z,17.77
2023-04-16T14:14:39.922Z,17.97
2023-04-16T14:16:54.709Z,18.48
2023-04-16T14:19:07.226Z,19.13
2023-04-16T14:21:19.739Z,19.73
2023-04-16T14:23:32.718Z,20.24
2023-04-16T14:25:45.320Z,20.70
2023-04-16T14:28:00.062Z,20.89
2023-04-16T14:30:13.133Z,20.80
2023-04-16T14:32:26.499Z,20.74
2023-04-16T14:34:39.066Z,20.74
2023-04-16T14:36:52.023Z,20.51
2023-04-16T14:39:04.686Z,20.51
2023-04-16T14:41:17.281Z,20.35
2023-04-16T14:43:29.825Z,20.14
2023-04-16T14:45:42.568Z,19.85
2023-04-16T14:47:55.244Z,19.57
2023-04-16T14:50:08.349Z,19.61
2023-04-16T14:52:20.920Z,19.87
2023-04-16T14:54:33.959Z,20.14
2023-04-16T14:56:47.390Z,20.26
2023-04-16T14:58:59.966Z,20.22
2023-04-16T15:01:14.755Z,19.96
2023-04-16T15:03:27.748Z,19.71
2023-04-16T15:05:40.831Z,19.53
2023-04-16T15:07:53.862Z,19.25
2023-04-16T15:10:09.095Z,19.10
2023-04-16T15:12:21.674Z,18.96
2023-04-16T15:14:34.219Z,18.86
2023-04-16T15:16:48.960Z,18.58
2023-04-16T15:19:04.810Z,18.25
2023-04-16T15:21:17.840Z,18.10
2023-04-16T15:23:31.950Z,17.93
2023-04-16T15:25:44.586Z,17.81
2023-04-16T15:27:57.153Z,17.72
2023-04-16T15:30:10.249Z,17.64
2023-04-16T15:32:23.087Z,17.56
2023-04-16T15:34:35.672Z,17.48
2023-04-16T15:36:48.208Z,17.37
2023-04-16T15:39:00.820Z,17.38
2023-04-16T15:41:13.602Z,17.34
2023-04-16T15:43:30.124Z,17.32
2023-04-16T15:45:42.770Z,17.29
2023-04-16T15:47:56.424Z,17.24
2023-04-16T15:50:09.599Z,17.17
2023-04-16T15:52:22.237Z,17.03
2023-04-16T15:54:34.816Z,16.89
2023-04-16T15:56:47.560Z,16.77
2023-04-16T15:59:00.143Z,16.72
2023-04-16T16:01:12.731Z,16.76
2023-04-16T16:03:25.444Z,16.71
2023-04-16T16:05:38.234Z,16.63
2023-04-16T16:07:51.698Z,16.59
2023-04-16T16:10:05.925Z,16.56
2023-04-16T16:12:18.753Z,16.45
2023-04-16T16:14:33.044Z,16.37
2023-04-16T16:16:45.884Z,16.30
2023-04-16T16:18:58.440Z,16.25
2023-04-16T16:21:11.249Z,16.21
2023-04-16T16:23:23.948Z,16.18
2023-04-16T16:25:37.089Z,16.18
2023-04-16T16:27:49.601Z,16.19
2023-04-16T16:30:04.465Z,16.24
2023-04-16T16:32:17.076Z,16.28
2023-04-16T16:34:29.657Z,16.33
2023-04-16T16:36:42.186Z,16.40
2023-04-16T16:38:55.193Z,16.44
2023-04-16T16:41:08.577Z,16.48
2023-04-16T16:43:21.419Z,16.52
2023-04-16T16:45:33.942Z,16.55
2023-04-16T16:47:46.788Z,16.60
2023-04-16T16:50:00.754Z,16.64
2023-04-16T16:52:15.396Z,16.68
2023-04-16T16:54:27.923Z,16.71
2023-04-16T16:56:40.475Z,16.74
2023-04-16T16:58:52.965Z,16.71
2023-04-16T17:01:05.826Z,16.66
2023-04-16T17:03:18.711Z,16.53
2023-04-16T17:05:31.446Z,16.40
2023-04-16T17:07:44.098Z,16.20
2023-04-16T17:09:56.728Z,15.77
2023-04-16T17:12:09.351Z,15.39
2023-04-16T17:14:21.875Z,15.17
2023-04-16T17:16:34.493Z,14.91
2023-04-16T17:18:47.222Z,14.73
2023-04-16T17:20:59.931Z,14.53
2023-04-16T17:23:12.597Z,14.30
2023-04-16T17:25:25.198Z,14.20
2023-04-16T17:27:37.758Z,14.13
2023-04-16T17:29:50.677Z,13.95
2023-04-16T17:32:03.888Z,13.79
2023-04-16T17:34:19.440Z,13.72
2023-04-16T17:36:32.166Z,13.58
2023-04-16T17:38:45.073Z,13.50
2023-04-16T17:40:57.991Z,13.40
2023-04-16T17:43:10.605Z,13.34
2023-04-16T17:45:23.139Z,13.28
2023-04-16T17:47:36.387Z,13.24
2023-04-16T17:49:48.938Z,13.22
2023-04-16T17:52:01.903Z,13.16
2023-04-16T17:54:14.578Z,13.13
2023-04-16T17:56:27.205Z,13.12
2023-04-16T17:58:39.871Z,13.08
2023-04-16T18:00:52.383Z,13.03
2023-04-16T18:03:05.243Z,12.99
2023-04-16T18:05:19.062Z,12.97
2023-04-16T18:07:32.423Z,12.96
2023-04-16T18:09:45.213Z,12.93
2023-04-16T18:11:57.791Z,12.91
2023-04-16T18:14:13.228Z,12.90
2023-04-16T18:16:26.227Z,12.84
2023-04-16T18:18:38.810Z,12.84
2023-04-16T18:20:52.337Z,12.83
2023-04-16T18:23:04.936Z,12.81
2023-04-16T18:25:19.013Z,12.80
2023-04-16T18:27:33.338Z,12.76
2023-04-16T18:29:45.902Z,12.76
2023-04-16T18:31:59.125Z,12.77
2023-04-16T18:34:12.538Z,12.79
2023-04-16T18:36:26.582Z,12.78
2023-04-16T18:38:49.379Z,12.79
2023-04-16T18:41:17.696Z,12.76
2023-04-16T18:43:31.052Z,12.80
2023-04-16T18:45:43.600Z,12.83
2023-04-16T18:47:58.814Z,12.83
2023-04-16T18:50:11.426Z,12.82
2023-04-16T18:52:24.038Z,12.79
2023-04-16T18:54:36.676Z,12.73
2023-04-16T18:56:49.242Z,12.68
2023-04-16T18:59:01.895Z,12.61
2023-04-16T19:01:14.503Z,12.55
2023-04-16T19:03:29.587Z,12.51
2023-04-16T19:05:42.248Z,12.46
2023-04-16T19:07:55.480Z,12.39
2023-04-16T19:10:08.594Z,12.30
2023-04-16T19:12:21.511Z,12.21
2023-04-16T19:14:34.089Z,12.16
2023-04-16T19:16:47.386Z,12.10
2023-04-16T19:19:00.777Z,12.02
2023-04-16T19:21:13.369Z,11.94
2023-04-16T19:23:26.661Z,11.88
2023-04-16T19:25:40.804Z,11.83
2023-04-16T19:27:55.575Z,11.79
2023-04-16T19:30:08.817Z,11.77
2023-04-16T19:32:21.523Z,11.71
2023-04-16T19:34:34.129Z,11.66
2023-04-16T19:36:46.901Z,11.62
2023-04-16T19:38:59.490Z,11.55
2023-04-16T19:41:12.099Z,11.51
2023-04-16T19:43:24.652Z,11.49
2023-04-16T19:45:46.038Z,11.48
2023-04-16T19:47:58.957Z,11.45
2023-04-16T19:50:11.719Z,11.44
2023-04-16T19:52:24.315Z,11.45
2023-04-16T19:54:37.542Z,11.44
2023-04-16T19:56:53.080Z,11.44
2023-04-16T19:59:05.673Z,11.41
2023-04-16T20:01:18.322Z,11.38
2023-04-16T20:03:30.984Z,11.37
2023-04-16T20:05:43.555Z,11.35
2023-04-16T20:07:56.614Z,11.29
2023-04-16T20:10:09.736Z,11.24
2023-04-16T20:12:22.836Z,11.24
2023-04-16T20:14:35.496Z,11.25
2023-04-16T20:16:48.243Z,11.29
2023-04-16T20:19:08.604Z,11.36
2023-04-16T20:21:21.673Z,11.36
2023-04-16T20:23:34.244Z,11.36
2023-04-16T20:25:46.849Z,11.33
2023-04-16T20:27:59.408Z,11.32
2023-04-16T20:30:12.763Z,11.31
2023-04-16T20:32:27.206Z,11.32
2023-04-16T20:34:40.551Z,11.33
2023-04-16T20:36:54.756Z,11.30
2023-04-16T20:39:08.148Z,11.26
2023-04-16T20:41:21.282Z,11.27
2023-04-16T20:43:40.967Z,11.29
2023-04-16T20:45:53.828Z,11.27
2023-04-16T20:48:09.581Z,11.25
2023-04-16T20:50:22.220Z,11.24
2023-04-16T20:52:34.742Z,11.23
2023-04-16T20:54:47.862Z,11.23
2023-04-16T20:57:01.908Z,11.23
2023-04-16T20:59:16.032Z,11.19
2023-04-16T21:01:28.552Z,11.15
2023-04-16T21:03:41.398Z,11.12
2023-04-16T21:05:55.376Z,11.10
2023-04-16T21:08:07.967Z,11.09
2023-04-16T21:10:20.748Z,11.07
2023-04-16T21:12:33.278Z,11.02
2023-04-16T21:14:45.870Z,10.97
2023-04-16T21:16:58.432Z,10.91
2023-04-16T21:19:11.259Z,10.88
2023-04-16T21:21:24.959Z,10.84
2023-04-16T21:23:37.501Z,10.84
2023-04-16T21:25:50.081Z,10.83
2023-04-16T21:28:02.654Z,10.78
2023-04-16T21:30:15.782Z,10.68
2023-04-16T21:32:28.386Z,10.59
2023-04-16T21:34:41.014Z,10.59
2023-04-16T21:36:53.555Z,10.58
2023-04-16T21:39:06.108Z,10.59
2023-04-16T21:41:18.641Z,10.57
2023-04-16T21:43:32.197Z,10.55
2023-04-16T21:45:44.951Z,10.52
2023-04-16T21:47:57.588Z,10.50
2023-04-16T21:50:10.694Z,10.49
2023-04-16T21:52:23.242Z,10.44
2023-04-16T21:54:35.944Z,10.38
2023-04-16T21:56:48.480Z,10.34
2023-04-16T21:59:01.082Z,10.31
2023-04-16T22:01:13.703Z,10.30
2023-04-16T22:03:27.594Z,10.28
2023-04-16T22:05:40.354Z,10.25
2023-04-16T22:07:53.178Z,10.22
2023-04-16T22:10:06.778Z,10.16
2023-04-16T22:12:19.355Z,10.13
2023-04-16T22:14:31.999Z,10.09
2023-04-16T22:16:44.938Z,10.04
2023-04-16T22:18:57.467Z,10.00
2023-04-16T22:21:10.325Z,9.92
2023-04-16T22:23:24.048Z,9.81
2023-04-16T22:25:36.709Z,9.80
2023-04-16T22:27:49.260Z,9.78
2023-04-16T22:30:02.760Z,9.77
2023-04-16T22:32:15.512Z,9.76
2023-04-16T22:34:28.134Z,9.74
2023-04-16T22:36:41.273Z,9.73
2023-04-16T22:38:53.834Z,9.73
2023-04-16T22:41:06.376Z,9.69
2023-04-16T22:43:18.929Z,9.61
2023-04-16T22:45:31.534Z,9.57
2023-04-16T22:47:44.155Z,9.53
2023-04-16T22:49:56.674Z,9.51
2023-04-16T22:52:09.212Z,9.48
2023-04-16T22:54:21.778Z,9.48
2023-04-16T22:56:34.383Z,9.51
2023-04-16T22:58:49.169Z,9.55
2023-04-16T23:01:01.799Z,9.56
2023-04-16T23:03:15.537Z,9.56
2023-04-16T23:05:28.138Z,9.52
2023-04-16T23:07:40.710Z,9.48
2023-04-16T23:09:53.270Z,9.45
2023-04-16T23:12:06.146Z,9.41
2023-04-16T23:14:18.682Z,9.41
2023-04-16T23:16:31.347Z,9.41
2023-04-16T23:18:43.924Z,9.44
2023-04-16T23:20:56.552Z,9.45
2023-04-16T23:23:09.096Z,9.45
2023-04-16T23:25:23.508Z,9.42
2023-04-16T23:27:36.461Z,9.39
2023-04-16T23:29:49.246Z,9.37
2023-04-16T23:32:01.903Z,9.36
2023-04-16T23:34:14.628Z,9.37
2023-04-16T23:36:27.542Z,9.38
2023-04-16T23:38:40.055Z,9.36
2023-04-16T23:40:52.623Z,9.35
2023-04-16T23:43:05.179Z,9.36
2023-04-16T23:45:17.927Z,9.37
2023-04-16T23:47:30.649Z,9.38
2023-04-16T23:49:43.255Z,9.38
2023-04-16T23:51:55.853Z,9.38
2023-04-16T23:54:08.374Z,9.38
2023-04-16T23:56:21.165Z,9.36
2023-04-16T23:58:33.692Z,9.34
